sensor_id;sensor_type;location;lat;lon;timestamp;pressure;altitude;pressure_sealevel;temperature;humidity
82927;BME280;72788;40.218;44.486;2024-02-23T00:00:29;88792.88;;;9.26;44.89
82927;BME280;72788;40.218;44.486;2024-02-23T00:02:55;88794.00;;;9.29;45.11
82927;BME280;72788;40.218;44.486;2024-02-23T00:05:23;88800.06;;;9.19;46.11
82927;BME280;72788;40.218;44.486;2024-02-23T00:07:49;88802.84;;;8.90;46.34
82927;BME280;72788;40.218;44.486;2024-02-23T00:10:15;88795.78;;;8.77;46.51
82927;BME280;72788;40.218;44.486;2024-02-23T00:12:41;88804.44;;;8.77;46.23
82927;BME280;72788;40.218;44.486;2024-02-23T00:15:09;88807.75;;;8.88;46.42
82927;BME280;72788;40.218;44.486;2024-02-23T00:17:35;88805.78;;;9.07;46.05
82927;BME280;72788;40.218;44.486;2024-02-23T00:20:00;88803.84;;;9.18;45.71
82927;BME280;72788;40.218;44.486;2024-02-23T00:22:26;88810.59;;;9.22;45.90
82927;BME280;72788;40.218;44.486;2024-02-23T00:24:52;88815.41;;;9.34;45.74
82927;BME280;72788;40.218;44.486;2024-02-23T00:27:17;88815.00;;;9.43;45.18
82927;BME280;72788;40.218;44.486;2024-02-23T00:29:43;88810.38;;;9.58;45.36
82927;BME280;72788;40.218;44.486;2024-02-23T00:32:09;88816.75;;;9.64;45.08
82927;BME280;72788;40.218;44.486;2024-02-23T00:34:35;88816.00;;;9.63;45.11
82927;BME280;72788;40.218;44.486;2024-02-23T00:37:01;88819.78;;;9.59;45.48
82927;BME280;72788;40.218;44.486;2024-02-23T00:39:27;88813.81;;;9.51;44.72
82927;BME280;72788;40.218;44.486;2024-02-23T00:41:53;88803.66;;;9.49;45.19
82927;BME280;72788;40.218;44.486;2024-02-23T00:44:18;88808.56;;;9.47;45.89
82927;BME280;72788;40.218;44.486;2024-02-23T00:46:44;88810.81;;;9.53;45.33
82927;BME280;72788;40.218;44.486;2024-02-23T00:49:10;88816.75;;;9.64;46.17
82927;BME280;72788;40.218;44.486;2024-02-23T00:51:35;88811.78;;;9.73;45.29
82927;BME280;72788;40.218;44.486;2024-02-23T00:54:01;88813.78;;;9.55;45.01
82927;BME280;72788;40.218;44.486;2024-02-23T00:56:27;88819.78;;;9.62;45.32
82927;BME280;72788;40.218;44.486;2024-02-23T00:58:53;88820.81;;;9.75;45.88
82927;BME280;72788;40.218;44.486;2024-02-23T01:01:18;88815.06;;;9.87;44.90
82927;BME280;72788;40.218;44.486;2024-02-23T01:03:44;88814.59;;;9.96;45.10
82927;BME280;72788;40.218;44.486;2024-02-23T01:06:09;88816.84;;;10.01;45.34
82927;BME280;72788;40.218;44.486;2024-02-23T01:08:35;88822.03;;;10.08;44.24
82927;BME280;72788;40.218;44.486;2024-02-23T01:11:01;88812.59;;;10.14;44.56
82927;BME280;72788;40.218;44.486;2024-02-23T01:13:27;88817.09;;;10.17;45.18
82927;BME280;72788;40.218;44.486;2024-02-23T01:15:52;88834.03;;;10.20;44.28
82927;BME280;72788;40.218;44.486;2024-02-23T01:18:19;88832.88;;;10.24;44.62
82927;BME280;72788;40.218;44.486;2024-02-23T01:20:45;88837.44;;;10.20;45.32
82927;BME280;72788;40.218;44.486;2024-02-23T01:23:11;88816.81;;;10.05;44.77
82927;BME280;72788;40.218;44.486;2024-02-23T01:25:36;88820.91;;;10.09;45.20
82927;BME280;72788;40.218;44.486;2024-02-23T01:28:03;88819.78;;;10.10;45.45
82927;BME280;72788;40.218;44.486;2024-02-23T01:30:29;88806.19;;;10.12;44.95
82927;BME280;72788;40.218;44.486;2024-02-23T01:32:54;88808.78;;;10.22;44.92
82927;BME280;72788;40.218;44.486;2024-02-23T01:35:20;88818.53;;;10.25;44.22
82927;BME280;72788;40.218;44.486;2024-02-23T01:37:46;88809.84;;;10.28;44.14
82927;BME280;72788;40.218;44.486;2024-02-23T01:40:11;88813.22;;;10.29;43.78
82927;BME280;72788;40.218;44.486;2024-02-23T01:42:38;88806.94;;;10.12;44.30
82927;BME280;72788;40.218;44.486;2024-02-23T01:45:04;88800.69;;;9.92;44.65
82927;BME280;72788;40.218;44.486;2024-02-23T01:47:30;88804.63;;;9.70;44.43
82927;BME280;72788;40.218;44.486;2024-02-23T01:49:57;88806.19;;;9.67;44.76
82927;BME280;72788;40.218;44.486;2024-02-23T01:52:24;88813.66;;;9.72;45.15
82927;BME280;72788;40.218;44.486;2024-02-23T01:54:51;88807.97;;;9.77;45.01
82927;BME280;72788;40.218;44.486;2024-02-23T01:57:17;88794.38;;;9.82;44.02
82927;BME280;72788;40.218;44.486;2024-02-23T01:59:43;88798.88;;;9.85;44.84
82927;BME280;72788;40.218;44.486;2024-02-23T02:02:08;88804.91;;;9.86;43.91
82927;BME280;72788;40.218;44.486;2024-02-23T02:04:34;88806.41;;;9.87;44.31
82927;BME280;72788;40.218;44.486;2024-02-23T02:07:00;88807.50;;;9.89;44.17
82927;BME280;72788;40.218;44.486;2024-02-23T02:09:26;88796.97;;;9.86;44.38
82927;BME280;72788;40.218;44.486;2024-02-23T02:11:52;88803.75;;;9.90;44.20
82927;BME280;72788;40.218;44.486;2024-02-23T02:14:18;88809.34;;;9.96;44.35
82927;BME280;72788;40.218;44.486;2024-02-23T02:16:44;88808.16;;;10.01;44.17
82927;BME280;72788;40.218;44.486;2024-02-23T02:19:11;88803.97;;;10.07;44.36
82927;BME280;72788;40.218;44.486;2024-02-23T02:21:37;88800.53;;;10.13;43.81
82927;BME280;72788;40.218;44.486;2024-02-23T02:24:04;88797.84;;;10.20;43.78
82927;BME280;72788;40.218;44.486;2024-02-23T02:26:32;88795.94;;;10.21;44.32
82927;BME280;72788;40.218;44.486;2024-02-23T02:28:58;88799.31;;;10.25;43.58
82927;BME280;72788;40.218;44.486;2024-02-23T02:31:24;88801.53;;;10.30;44.52
82927;BME280;72788;40.218;44.486;2024-02-23T02:33:50;88801.53;;;10.30;44.04
82927;BME280;72788;40.218;44.486;2024-02-23T02:36:15;88808.75;;;10.26;43.54
82927;BME280;72788;40.218;44.486;2024-02-23T02:38:41;88805.34;;;10.25;44.17
82927;BME280;72788;40.218;44.486;2024-02-23T02:41:08;88807.25;;;10.21;44.16
82927;BME280;72788;40.218;44.486;2024-02-23T02:43:34;88801.28;;;10.17;43.75
82927;BME280;72788;40.218;44.486;2024-02-23T02:46:00;88809.53;;;10.19;44.58
82927;BME280;72788;40.218;44.486;2024-02-23T02:48:25;88806.84;;;10.26;43.46
82927;BME280;72788;40.218;44.486;2024-02-23T02:50:51;88811.34;;;10.29;44.06
82927;BME280;72788;40.218;44.486;2024-02-23T02:53:17;88806.00;;;10.36;43.51
82927;BME280;72788;40.218;44.486;2024-02-23T02:55:44;88806.28;;;10.46;44.25
82927;BME280;72788;40.218;44.486;2024-02-23T02:58:13;88800.97;;;10.49;43.01
82927;BME280;72788;40.218;44.486;2024-02-23T03:00:39;88805.47;;;10.52;43.92
82927;BME280;72788;40.218;44.486;2024-02-23T03:03:05;88809.56;;;10.57;43.01
82927;BME280;72788;40.218;44.486;2024-02-23T03:05:31;88809.91;;;10.62;42.98
82927;BME280;72788;40.218;44.486;2024-02-23T03:07:57;88815.09;;;10.69;42.96
82927;BME280;72788;40.218;44.486;2024-02-23T03:10:22;88825.63;;;10.73;42.89
82927;BME280;72788;40.218;44.486;2024-02-23T03:12:48;88823.31;;;10.75;43.00
82927;BME280;72788;40.218;44.486;2024-02-23T03:15:14;88832.72;;;10.79;42.56
82927;BME280;72788;40.218;44.486;2024-02-23T03:17:40;88834.97;;;10.81;43.08
82927;BME280;72788;40.218;44.486;2024-02-23T03:20:06;88841.34;;;10.83;43.09
82927;BME280;72788;40.218;44.486;2024-02-23T03:22:35;88854.53;;;10.87;43.18
82927;BME280;72788;40.218;44.486;2024-02-23T03:25:02;88862.50;;;10.83;42.84
82927;BME280;72788;40.218;44.486;2024-02-23T03:27:34;88871.59;;;10.79;42.56
82927;BME280;72788;40.218;44.486;2024-02-23T03:29:59;88878.88;;;10.68;42.31
82927;BME280;72788;40.218;44.486;2024-02-23T03:32:25;88879.09;;;10.47;43.52
82927;BME280;72788;40.218;44.486;2024-02-23T03:34:51;88901.44;;;10.35;43.70
82927;BME280;72788;40.218;44.486;2024-02-23T03:37:17;88901.91;;;10.19;43.77
82927;BME280;72788;40.218;44.486;2024-02-23T03:39:43;88897.09;;;10.04;45.08
82927;BME280;72788;40.218;44.486;2024-02-23T03:42:09;88903.97;;;9.94;44.45
82927;BME280;72788;40.218;44.486;2024-02-23T03:44:34;88910.03;;;9.91;45.42
82927;BME280;72788;40.218;44.486;2024-02-23T03:47:00;88912.72;;;9.84;44.84
82927;BME280;72788;40.218;44.486;2024-02-23T03:49:25;88916.13;;;9.77;45.31
82927;BME280;72788;40.218;44.486;2024-02-23T03:51:51;88921.00;;;9.82;44.69
82927;BME280;72788;40.218;44.486;2024-02-23T03:54:17;88922.84;;;9.89;45.25
82927;BME280;72788;40.218;44.486;2024-02-23T03:56:43;88923.16;;;9.98;46.22
82927;BME280;72788;40.218;44.486;2024-02-23T03:59:09;88936.69;;;10.07;46.02
82927;BME280;72788;40.218;44.486;2024-02-23T04:01:36;88932.53;;;10.10;45.98
82927;BME280;72788;40.218;44.486;2024-02-23T04:04:02;88940.78;;;10.12;46.21
82927;BME280;72788;40.218;44.486;2024-02-23T04:06:28;88942.28;;;10.20;45.87
82927;BME280;72788;40.218;44.486;2024-02-23T04:08:54;88941.94;;;10.18;46.36
82927;BME280;72788;40.218;44.486;2024-02-23T04:11:19;88956.22;;;10.20;45.85
82927;BME280;72788;40.218;44.486;2024-02-23T04:13:45;88961.19;;;10.15;45.43
82927;BME280;72788;40.218;44.486;2024-02-23T04:16:10;88963.84;;;10.04;46.94
82927;BME280;72788;40.218;44.486;2024-02-23T04:18:36;88970.34;;;9.85;46.00
82927;BME280;72788;40.218;44.486;2024-02-23T04:21:02;88977.97;;;9.69;45.88
82927;BME280;72788;40.218;44.486;2024-02-23T04:23:27;88982.53;;;9.62;46.04
82927;BME280;72788;40.218;44.486;2024-02-23T04:25:53;88985.59;;;9.46;46.66
82927;BME280;72788;40.218;44.486;2024-02-23T04:28:19;89000.31;;;9.43;47.28
82927;BME280;72788;40.218;44.486;2024-02-23T04:30:45;88999.91;;;9.45;47.08
82927;BME280;72788;40.218;44.486;2024-02-23T04:33:11;88997.63;;;9.58;47.28
82927;BME280;72788;40.218;44.486;2024-02-23T04:35:36;88999.84;;;9.66;46.93
82927;BME280;72788;40.218;44.486;2024-02-23T04:38:02;89000.22;;;9.72;46.97
82927;BME280;72788;40.218;44.486;2024-02-23T04:40:28;89002.44;;;9.77;46.16
82927;BME280;72788;40.218;44.486;2024-02-23T04:42:53;89008.84;;;9.79;46.62
82927;BME280;72788;40.218;44.486;2024-02-23T04:45:19;88998.28;;;9.79;46.13
82927;BME280;72788;40.218;44.486;2024-02-23T04:47:45;89008.75;;;9.97;46.27
82927;BME280;72788;40.218;44.486;2024-02-23T04:50:12;89012.06;;;10.08;46.06
82927;BME280;72788;40.218;44.486;2024-02-23T04:52:38;89004.16;;;10.15;46.22
82927;BME280;72788;40.218;44.486;2024-02-23T04:55:04;89002.63;;;10.18;46.54
82927;BME280;72788;40.218;44.486;2024-02-23T04:57:30;88999.59;;;10.23;46.41
82927;BME280;72788;40.218;44.486;2024-02-23T04:59:56;89005.63;;;10.20;46.78
82927;BME280;72788;40.218;44.486;2024-02-23T05:02:22;89004.88;;;10.12;47.00
82927;BME280;72788;40.218;44.486;2024-02-23T05:04:47;89012.88;;;10.02;47.02
82927;BME280;72788;40.218;44.486;2024-02-23T05:07:13;89021.59;;;9.95;47.23
82927;BME280;72788;40.218;44.486;2024-02-23T05:09:38;89022.72;;;9.90;47.19
82927;BME280;72788;40.218;44.486;2024-02-23T05:12:07;89028.38;;;9.89;47.66
82927;BME280;72788;40.218;44.486;2024-02-23T05:14:33;89029.50;;;9.88;47.22
82927;BME280;72788;40.218;44.486;2024-02-23T05:16:58;89028.00;;;9.90;47.42
82927;BME280;72788;40.218;44.486;2024-02-23T05:19:24;89027.25;;;9.90;47.83
82927;BME280;72788;40.218;44.486;2024-02-23T05:21:50;89019.69;;;9.92;48.27
82927;BME280;72788;40.218;44.486;2024-02-23T05:24:15;89029.88;;;9.90;47.78
82927;BME280;72788;40.218;44.486;2024-02-23T05:26:41;89028.03;;;9.87;48.50
82927;BME280;72788;40.218;44.486;2024-02-23T05:29:08;89041.63;;;9.78;47.96
82927;BME280;72788;40.218;44.486;2024-02-23T05:31:48;89057.84;;;9.73;49.74
82927;BME280;72788;40.218;44.486;2024-02-23T05:34:14;89058.63;;;9.67;48.70
82927;BME280;72788;40.218;44.486;2024-02-23T05:36:40;89065.06;;;9.55;49.01
82927;BME280;72788;40.218;44.486;2024-02-23T05:39:05;89066.97;;;9.51;48.71
82927;BME280;72788;40.218;44.486;2024-02-23T05:41:33;89068.09;;;9.46;49.43
82927;BME280;72788;40.218;44.486;2024-02-23T05:43:59;89072.22;;;9.58;49.00
82927;BME280;72788;40.218;44.486;2024-02-23T05:46:24;89078.56;;;9.75;48.79
82927;BME280;72788;40.218;44.486;2024-02-23T05:48:50;89084.56;;;9.82;48.52
82927;BME280;72788;40.218;44.486;2024-02-23T05:51:16;89078.91;;;9.91;47.47
82927;BME280;72788;40.218;44.486;2024-02-23T05:53:41;89086.75;;;10.05;48.21
82927;BME280;72788;40.218;44.486;2024-02-23T05:56:07;89090.09;;;10.20;48.22
82927;BME280;72788;40.218;44.486;2024-02-23T05:58:33;89091.19;;;10.33;48.18
82927;BME280;72788;40.218;44.486;2024-02-23T06:00:58;89084.72;;;10.41;47.48
82927;BME280;72788;40.218;44.486;2024-02-23T06:03:24;89077.91;;;10.43;47.97
82927;BME280;72788;40.218;44.486;2024-02-23T06:05:50;89082.44;;;10.47;47.89
82927;BME280;72788;40.218;44.486;2024-02-23T06:08:15;89084.31;;;10.50;47.34
82927;BME280;72788;40.218;44.486;2024-02-23T06:10:41;89086.53;;;10.51;47.45
82927;BME280;72788;40.218;44.486;2024-02-23T06:13:08;89077.88;;;10.47;47.54
82927;BME280;72788;40.218;44.486;2024-02-23T06:15:34;89087.31;;;10.48;48.23
82927;BME280;72788;40.218;44.486;2024-02-23T06:17:59;89078.31;;;10.42;47.96
82927;BME280;72788;40.218;44.486;2024-02-23T06:20:25;89077.22;;;10.32;48.72
82927;BME280;72788;40.218;44.486;2024-02-23T06:22:51;89061.84;;;10.17;48.52
82927;BME280;72788;40.218;44.486;2024-02-23T06:25:16;89068.66;;;10.04;49.50
82927;BME280;72788;40.218;44.486;2024-02-23T06:27:42;89076.63;;;9.89;49.43
82927;BME280;72788;40.218;44.486;2024-02-23T06:30:08;89089.13;;;9.78;49.32
82927;BME280;72788;40.218;44.486;2024-02-23T06:32:34;89077.44;;;9.72;50.33
82927;BME280;72788;40.218;44.486;2024-02-23T06:34:59;89094.44;;;9.68;49.76
82927;BME280;72788;40.218;44.486;2024-02-23T06:37:25;89093.28;;;9.62;50.32
82927;BME280;72788;40.218;44.486;2024-02-23T06:39:51;89084.69;;;9.43;50.18
82927;BME280;72788;40.218;44.486;2024-02-23T06:42:20;89089.97;;;9.40;50.24
82927;BME280;72788;40.218;44.486;2024-02-23T06:44:46;89085.44;;;9.37;50.35
82927;BME280;72788;40.218;44.486;2024-02-23T06:47:12;89103.50;;;9.45;50.16
82927;BME280;72788;40.218;44.486;2024-02-23T06:49:42;89108.41;;;9.47;51.09
82927;BME280;72788;40.218;44.486;2024-02-23T06:52:08;89103.50;;;9.53;49.73
82927;BME280;72788;40.218;44.486;2024-02-23T06:54:34;89109.13;;;9.55;49.82
82927;BME280;72788;40.218;44.486;2024-02-23T06:57:00;89107.25;;;9.55;50.21
82927;BME280;72788;40.218;44.486;2024-02-23T06:59:25;89102.34;;;9.54;50.82
82927;BME280;72788;40.218;44.486;2024-02-23T07:01:51;89112.50;;;9.62;50.28
82927;BME280;72788;40.218;44.486;2024-02-23T07:04:18;89107.63;;;9.68;50.18
82927;BME280;72788;40.218;44.486;2024-02-23T07:06:44;89110.59;;;9.77;50.31
82927;BME280;72788;40.218;44.486;2024-02-23T07:09:10;89102.66;;;9.77;49.72
82927;BME280;72788;40.218;44.486;2024-02-23T07:11:37;89118.13;;;9.78;50.75
82927;BME280;72788;40.218;44.486;2024-02-23T07:14:03;89107.94;;;9.87;50.31
82927;BME280;72788;40.218;44.486;2024-02-23T07:16:29;89098.50;;;9.86;50.22
82927;BME280;72788;40.218;44.486;2024-02-23T07:18:55;89102.63;;;9.98;50.01
82927;BME280;72788;40.218;44.486;2024-02-23T07:21:22;89101.06;;;10.04;50.02
82927;BME280;72788;40.218;44.486;2024-02-23T07:23:47;89104.47;;;10.19;49.68
82927;BME280;72788;40.218;44.486;2024-02-23T07:26:13;89100.66;;;10.27;49.23
82927;BME280;72788;40.218;44.486;2024-02-23T07:28:39;89095.72;;;10.32;49.31
82927;BME280;72788;40.218;44.486;2024-02-23T07:31:05;89089.66;;;10.35;48.88
82927;BME280;72788;40.218;44.486;2024-02-23T07:33:30;89098.38;;;10.25;49.46
82927;BME280;72788;40.218;44.486;2024-02-23T07:35:56;89093.03;;;10.36;49.17
82927;BME280;72788;40.218;44.486;2024-02-23T07:38:22;89098.69;;;10.41;49.29
82927;BME280;72788;40.218;44.486;2024-02-23T07:40:47;89094.50;;;10.48;48.47
82927;BME280;72788;40.218;44.486;2024-02-23T07:43:13;89089.91;;;10.59;48.43
82927;BME280;72788;40.218;44.486;2024-02-23T07:45:39;89090.59;;;10.70;48.79
82927;BME280;72788;40.218;44.486;2024-02-23T07:48:05;89074.72;;;10.73;48.69
82927;BME280;72788;40.218;44.486;2024-02-23T07:50:30;89086.78;;;10.74;48.74
82927;BME280;72788;40.218;44.486;2024-02-23T07:52:56;89079.66;;;10.68;48.85
82927;BME280;72788;40.218;44.486;2024-02-23T07:55:22;89077.72;;;10.75;48.66
82927;BME280;72788;40.218;44.486;2024-02-23T07:57:48;89076.16;;;10.85;48.53
82927;BME280;72788;40.218;44.486;2024-02-23T08:00:14;89072.25;;;11.04;48.61
82927;BME280;72788;40.218;44.486;2024-02-23T08:02:40;89083.09;;;11.16;48.79
82927;BME280;72788;40.218;44.486;2024-02-23T08:05:07;89084.13;;;11.26;47.83
82927;BME280;72788;40.218;44.486;2024-02-23T08:07:33;89082.19;;;11.33;47.95
82927;BME280;72788;40.218;44.486;2024-02-23T08:09:58;89087.00;;;11.46;48.31
82927;BME280;72788;40.218;44.486;2024-02-23T08:12:24;89084.31;;;11.49;47.73
82927;BME280;72788;40.218;44.486;2024-02-23T08:14:50;89085.09;;;11.46;48.08
82927;BME280;72788;40.218;44.486;2024-02-23T08:17:18;89092.72;;;11.41;47.38
82927;BME280;72788;40.218;44.486;2024-02-23T08:19:44;89096.91;;;11.34;47.09
82927;BME280;72788;40.218;44.486;2024-02-23T08:22:10;89087.16;;;11.28;47.62
82927;BME280;72788;40.218;44.486;2024-02-23T08:24:36;89086.06;;;11.22;47.47
82927;BME280;72788;40.218;44.486;2024-02-23T08:27:01;89085.31;;;11.21;47.61
82927;BME280;72788;40.218;44.486;2024-02-23T08:29:28;89089.13;;;11.17;47.53
82927;BME280;72788;40.218;44.486;2024-02-23T08:31:53;89085.38;;;11.14;47.33
82927;BME280;72788;40.218;44.486;2024-02-23T08:34:19;89068.06;;;11.06;47.75
82927;BME280;72788;40.218;44.486;2024-02-23T08:36:45;89087.25;;;11.14;47.52
82927;BME280;72788;40.218;44.486;2024-02-23T08:39:11;89083.09;;;11.16;47.56
82927;BME280;72788;40.218;44.486;2024-02-23T08:41:36;89084.50;;;11.28;47.22
82927;BME280;72788;40.218;44.486;2024-02-23T08:44:02;89083.34;;;11.32;47.25
82927;BME280;72788;40.218;44.486;2024-02-23T08:46:28;89084.53;;;11.24;46.34
82927;BME280;72788;40.218;44.486;2024-02-23T08:48:53;89087.22;;;11.21;46.67
82927;BME280;72788;40.218;44.486;2024-02-23T08:51:19;89080.72;;;11.25;46.43
82927;BME280;72788;40.218;44.486;2024-02-23T08:53:45;89072.31;;;11.37;46.63
82927;BME280;72788;40.218;44.486;2024-02-23T08:56:11;89076.72;;;11.55;46.71
82927;BME280;72788;40.218;44.486;2024-02-23T08:58:37;89068.97;;;11.74;46.38
82927;BME280;72788;40.218;44.486;2024-02-23T09:01:03;89069.16;;;11.94;46.04
82927;BME280;72788;40.218;44.486;2024-02-23T09:03:30;89072.84;;;12.00;45.51
82927;BME280;72788;40.218;44.486;2024-02-23T09:05:57;89071.09;;;11.90;44.65
82927;BME280;72788;40.218;44.486;2024-02-23T09:08:23;89078.28;;;11.90;44.66
82927;BME280;72788;40.218;44.486;2024-02-23T09:10:48;89066.03;;;12.03;45.44
82927;BME280;72788;40.218;44.486;2024-02-23T09:13:14;89057.91;;;12.17;44.52
82927;BME280;72788;40.218;44.486;2024-02-23T09:15:40;89073.41;;;12.18;44.02
82927;BME280;72788;40.218;44.486;2024-02-23T09:18:08;89081.47;;;12.08;44.04
82927;BME280;72788;40.218;44.486;2024-02-23T09:20:33;89066.06;;;11.99;44.21
82927;BME280;72788;40.218;44.486;2024-02-23T09:22:59;89068.72;;;11.99;44.49
82927;BME280;72788;40.218;44.486;2024-02-23T09:25:25;89066.03;;;12.03;43.89
82927;BME280;72788;40.218;44.486;2024-02-23T09:27:50;89070.91;;;12.04;43.92
82927;BME280;72788;40.218;44.486;2024-02-23T09:30:16;89071.63;;;12.08;44.28
82927;BME280;72788;40.218;44.486;2024-02-23T09:32:42;89068.94;;;12.12;43.86
82927;BME280;72788;40.218;44.486;2024-02-23T09:35:09;89068.47;;;12.20;44.10
82927;BME280;72788;40.218;44.486;2024-02-23T09:37:35;89074.78;;;12.30;43.60
82927;BME280;72788;40.218;44.486;2024-02-23T09:40:01;89072.84;;;12.34;43.38
82927;BME280;72788;40.218;44.486;2024-02-23T09:42:28;89069.41;;;12.37;43.46
82927;BME280;72788;40.218;44.486;2024-02-23T09:44:59;89072.69;;;12.45;42.52
82927;BME280;72788;40.218;44.486;2024-02-23T09:47:27;89067.06;;;12.43;42.92
82927;BME280;72788;40.218;44.486;2024-02-23T09:49:54;89068.88;;;12.49;43.39
82927;BME280;72788;40.218;44.486;2024-02-23T09:52:21;89059.78;;;12.50;42.54
82927;BME280;72788;40.218;44.486;2024-02-23T09:54:48;89066.97;;;12.50;43.31
82927;BME280;72788;40.218;44.486;2024-02-23T09:57:14;89067.63;;;12.57;42.93
82927;BME280;72788;40.218;44.486;2024-02-23T09:59:41;89061.47;;;12.64;42.79
82927;BME280;72788;40.218;44.486;2024-02-23T10:02:08;89062.53;;;12.70;42.84
82927;BME280;72788;40.218;44.486;2024-02-23T10:04:38;89063.06;;;12.85;42.58
82927;BME280;72788;40.218;44.486;2024-02-23T10:07:06;89052.47;;;12.85;42.47
82927;BME280;72788;40.218;44.486;2024-02-23T10:09:31;89056.97;;;12.88;42.26
82927;BME280;72788;40.218;44.486;2024-02-23T10:11:57;89053.28;;;12.82;42.27
82927;BME280;72788;40.218;44.486;2024-02-23T10:14:23;89046.09;;;12.78;42.51
82927;BME280;72788;40.218;44.486;2024-02-23T10:16:48;89045.41;;;12.74;42.24
82927;BME280;72788;40.218;44.486;2024-02-23T10:19:19;89057.97;;;12.70;42.16
82927;BME280;72788;40.218;44.486;2024-02-23T10:21:45;89057.19;;;12.73;42.62
82927;BME280;72788;40.218;44.486;2024-02-23T10:24:11;89059.31;;;12.82;42.25
82927;BME280;72788;40.218;44.486;2024-02-23T10:26:37;89066.16;;;12.79;42.11
82927;BME280;72788;40.218;44.486;2024-02-23T10:29:03;89062.16;;;12.68;42.04
82927;BME280;72788;40.218;44.486;2024-02-23T10:31:32;89054.66;;;12.63;41.60
82927;BME280;72788;40.218;44.486;2024-02-23T10:33:59;89047.34;;;12.70;41.75
82927;BME280;72788;40.218;44.486;2024-02-23T10:36:29;89046.25;;;12.68;41.14
82927;BME280;72788;40.218;44.486;2024-02-23T10:39:00;89040.38;;;12.57;42.01
82927;BME280;72788;40.218;44.486;2024-02-23T10:41:30;89039.81;;;12.42;41.70
82927;BME280;72788;40.218;44.486;2024-02-23T10:44:00;89032.41;;;12.30;42.10
82927;BME280;72788;40.218;44.486;2024-02-23T10:46:26;89035.00;;;12.33;42.69
82927;BME280;72788;40.218;44.486;2024-02-23T10:48:54;89027.66;;;12.45;42.17
82927;BME280;72788;40.218;44.486;2024-02-23T10:51:21;89026.47;;;12.49;41.25
82927;BME280;72788;40.218;44.486;2024-02-23T10:53:48;89038.84;;;12.56;41.72
82927;BME280;72788;40.218;44.486;2024-02-23T10:56:15;89042.69;;;12.82;41.90
82927;BME280;72788;40.218;44.486;2024-02-23T10:58:40;89045.22;;;13.15;41.02
82927;BME280;72788;40.218;44.486;2024-02-23T11:01:07;89047.16;;;13.35;39.87
82927;BME280;72788;40.218;44.486;2024-02-23T11:03:36;89052.41;;;13.38;40.85
82927;BME280;72788;40.218;44.486;2024-02-23T11:06:06;89053.03;;;13.46;39.95
82927;BME280;72788;40.218;44.486;2024-02-23T11:08:33;89056.38;;;13.50;40.03
82927;BME280;72788;40.218;44.486;2024-02-23T11:11:10;89048.22;;;13.41;38.40
82927;BME280;72788;40.218;44.486;2024-02-23T11:13:37;89054.31;;;13.38;39.54
82927;BME280;72788;40.218;44.486;2024-02-23T11:16:04;89051.31;;;13.36;40.11
82927;BME280;72788;40.218;44.486;2024-02-23T11:18:30;89048.88;;;13.45;39.67
82927;BME280;72788;40.218;44.486;2024-02-23T11:21:00;89048.56;;;13.43;39.46
82927;BME280;72788;40.218;44.486;2024-02-23T11:23:27;89050.50;;;13.39;39.44
82927;BME280;72788;40.218;44.486;2024-02-23T11:26:04;89048.69;;;13.36;38.12
82927;BME280;72788;40.218;44.486;2024-02-23T11:28:30;89047.56;;;13.10;38.30
82927;BME280;72788;40.218;44.486;2024-02-23T11:30:57;89047.16;;;12.85;39.18
82927;BME280;72788;40.218;44.486;2024-02-23T11:33:34;89051.03;;;12.80;39.87
82927;BME280;72788;40.218;44.486;2024-02-23T11:36:10;89054.75;;;12.82;39.13
82927;BME280;72788;40.218;44.486;2024-02-23T11:38:38;89056.31;;;12.80;38.73
82927;BME280;72788;40.218;44.486;2024-02-23T11:41:04;89057.31;;;12.63;40.05
82927;BME280;72788;40.218;44.486;2024-02-23T11:43:34;89067.06;;;12.43;38.63
82927;BME280;72788;40.218;44.486;2024-02-23T11:46:00;89059.38;;;12.21;40.07
82927;BME280;72788;40.218;44.486;2024-02-23T11:48:27;89070.19;;;12.00;39.94
82927;BME280;72788;40.218;44.486;2024-02-23T11:50:53;89073.59;;;12.01;40.46
82927;BME280;72788;40.218;44.486;2024-02-23T11:53:20;89078.09;;;12.07;41.16
82927;BME280;72788;40.218;44.486;2024-02-23T11:55:47;89076.81;;;12.19;40.45
82927;BME280;72788;40.218;44.486;2024-02-23T11:58:13;89074.88;;;12.23;40.74
82927;BME280;72788;40.218;44.486;2024-02-23T12:00:40;89084.28;;;11.94;40.20
82927;BME280;72788;40.218;44.486;2024-02-23T12:03:06;89080.91;;;11.52;41.89
82927;BME280;72788;40.218;44.486;2024-02-23T12:05:32;89071.47;;;11.03;42.52
82927;BME280;72788;40.218;44.486;2024-02-23T12:07:58;89079.81;;;10.47;44.17
82927;BME280;72788;40.218;44.486;2024-02-23T12:10:24;89071.72;;;9.88;45.32
82927;BME280;72788;40.218;44.486;2024-02-23T12:12:53;89085.41;;;9.51;46.95
82927;BME280;72788;40.218;44.486;2024-02-23T12:15:19;89082.44;;;9.10;48.66
82927;BME280;72788;40.218;44.486;2024-02-23T12:17:48;89100.13;;;8.74;48.09
82927;BME280;72788;40.218;44.486;2024-02-23T12:20:14;89103.13;;;8.59;49.69
82927;BME280;72788;40.218;44.486;2024-02-23T12:22:41;89117.81;;;8.60;48.31
82927;BME280;72788;40.218;44.486;2024-02-23T12:25:07;89118.19;;;8.62;49.45
82927;BME280;72788;40.218;44.486;2024-02-23T12:27:33;89115.91;;;8.49;49.91
82927;BME280;72788;40.218;44.486;2024-02-23T12:29:59;89120.06;;;8.58;49.91
82927;BME280;72788;40.218;44.486;2024-02-23T12:32:25;89108.44;;;8.73;51.96
82927;BME280;72788;40.218;44.486;2024-02-23T12:34:52;89105.06;;;8.93;51.25
82927;BME280;72788;40.218;44.486;2024-02-23T12:37:18;89096.03;;;9.05;52.19
82927;BME280;72788;40.218;44.486;2024-02-23T12:39:44;89099.41;;;9.20;50.46
82927;BME280;72788;40.218;44.486;2024-02-23T12:42:10;89108.44;;;9.33;49.05
82927;BME280;72788;40.218;44.486;2024-02-23T12:44:36;89097.88;;;9.43;48.82
82927;BME280;72788;40.218;44.486;2024-02-23T12:47:01;89089.56;;;9.56;48.58